createdAt,value
2019-05-03T00:02:29.504Z,95066.90
2019-05-03T00:05:25.483Z,95072.77
2019-05-03T00:08:02.314Z,95073.02
2019-05-03T00:10:32.886Z,95064.45
2019-05-03T00:13:03.385Z,95067.86
2019-05-03T00:16:05.382Z,95069.72
2019-05-03T00:18:35.886Z,95061.41
2019-05-03T00:21:12.398Z,95063.59
2019-05-03T00:23:42.910Z,95057.19
2019-05-03T00:26:13.408Z,95063.05
2019-05-03T00:28:43.894Z,95054.24
2019-05-03T00:31:14.415Z,95049.13
2019-05-03T00:33:46.524Z,95056.82
2019-05-03T00:36:41.929Z,95050.92
2019-05-03T00:39:29.144Z,95047.67
2019-05-03T00:41:59.600Z,95045.80
2019-05-03T00:44:33.008Z,95048.72
2019-05-03T00:47:22.263Z,95050.27
2019-05-03T00:49:52.766Z,95045.73
2019-05-03T00:52:23.198Z,95049.47
2019-05-03T00:54:53.662Z,95044.93
2019-05-03T00:57:27.211Z,95035.85
2019-05-03T00:59:57.695Z,95043.32
2019-05-03T01:02:43.693Z,95042.00
2019-05-03T01:05:17.264Z,95032.66
2019-05-03T01:07:47.722Z,95038.27
2019-05-03T01:10:22.610Z,95032.37
2019-05-03T01:12:56.941Z,95038.73
2019-05-03T01:15:58.208Z,95035.30
2019-05-03T01:18:28.674Z,95041.45
2019-05-03T01:21:02.290Z,95035.00
2019-05-03T01:23:33.958Z,95033.71
2019-05-03T01:26:06.243Z,95036.38
2019-05-03T01:28:37.571Z,95039.58
2019-05-03T01:31:15.091Z,95041.98
2019-05-03T01:33:48.907Z,95045.44
2019-05-03T01:36:19.378Z,95044.11
2019-05-03T01:38:50.237Z,95039.80
2019-05-03T01:41:21.897Z,95043.31
2019-05-03T01:43:57.517Z,95045.92
2019-05-03T01:46:31.496Z,95041.13
2019-05-03T01:49:14.936Z,95048.58
2019-05-03T01:52:03.267Z,95045.66
2019-05-03T01:54:37.731Z,95039.52
2019-05-03T01:57:11.697Z,95047.78
2019-05-03T01:59:42.565Z,95044.31
2019-05-03T02:05:38.192Z,95049.38
2019-05-03T02:08:12.491Z,95050.18
2019-05-03T02:10:58.893Z,95057.14
2019-05-03T02:13:29.314Z,95052.86
2019-05-03T02:15:59.794Z,95050.18
2019-05-03T02:18:31.799Z,95051.23
2019-05-03T02:21:02.399Z,95046.97
2019-05-03T02:23:33.097Z,95050.72
2019-05-03T02:26:03.834Z,95049.39
2019-05-03T02:28:34.326Z,95055.28
2019-05-03T02:31:04.792Z,95051.54
2019-05-03T02:33:35.247Z,95046.52
2019-05-03T02:36:05.971Z,95051.27
2019-05-03T02:38:38.182Z,95045.98
2019-05-03T02:41:14.102Z,95038.77
2019-05-03T02:43:49.075Z,95035.30
2019-05-03T02:46:38.459Z,95035.30
2019-05-03T02:49:31.098Z,95033.44
2019-05-03T02:52:01.494Z,95038.51
2019-05-03T02:54:38.457Z,95037.45
2019-05-03T02:57:11.945Z,95034.80
2019-05-03T02:59:42.460Z,95037.52
2019-05-03T03:02:15.139Z,95044.41
2019-05-03T03:04:45.490Z,95033.20
2019-05-03T03:07:17.236Z,95036.39
2019-05-03T03:09:47.745Z,95035.05
2019-05-03T03:12:18.231Z,95030.25
2019-05-03T03:14:48.724Z,95040.14
2019-05-03T03:17:19.207Z,95041.75
2019-05-03T03:19:49.835Z,95037.52
2019-05-03T03:22:20.812Z,95040.18
2019-05-03T03:24:52.614Z,95043.08
2019-05-03T03:27:25.880Z,95041.80
2019-05-03T03:30:10.088Z,95042.62
2019-05-03T03:32:40.501Z,95046.59
2019-05-03T03:35:21.117Z,95048.20
2019-05-03T03:37:49.468Z,95054.34
2019-05-03T03:40:19.913Z,95056.27
2019-05-03T03:42:51.973Z,95058.66
2019-05-03T03:45:25.171Z,95055.20
2019-05-03T03:47:56.880Z,95060.52
2019-05-03T03:50:27.651Z,95061.86
2019-05-03T03:52:58.090Z,95065.59
2019-05-03T03:55:29.198Z,95065.60
2019-05-03T03:57:59.899Z,95066.12
2019-05-03T04:00:30.331Z,95070.68
2019-05-03T04:03:26.016Z,95067.80
2019-05-03T04:05:58.913Z,95069.98
2019-05-03T04:08:29.524Z,95076.08
2019-05-03T04:11:00.086Z,95084.38
2019-05-03T04:13:31.469Z,95084.66
2019-05-03T04:16:13.069Z,95092.13
2019-05-03T04:19:05.782Z,95109.54
2019-05-03T04:21:36.284Z,95124.80
2019-05-03T04:24:06.686Z,95140.33
2019-05-03T04:26:37.558Z,95135.56
2019-05-03T04:29:07.957Z,95141.95
2019-05-03T04:31:39.776Z,95138.48
2019-05-03T04:34:10.180Z,95148.84
2019-05-03T04:36:40.621Z,95153.10
2019-05-03T04:39:11.048Z,95154.95
2019-05-03T04:41:41.449Z,95156.55
2019-05-03T04:44:11.897Z,95165.58
2019-05-03T04:46:55.979Z,95178.09
2019-05-03T04:49:26.084Z,95183.66
2019-05-03T04:51:57.026Z,95188.41
2019-05-03T04:54:45.163Z,95193.19
2019-05-03T04:57:16.043Z,95191.87
2019-05-03T04:59:46.245Z,95194.53
2019-05-03T05:02:16.707Z,95202.25
2019-05-03T05:04:47.123Z,95205.44
2019-05-03T05:07:19.228Z,95216.04
2019-05-03T05:09:49.701Z,95218.17
2019-05-03T05:12:20.193Z,95216.56
2019-05-03T05:14:51.246Z,95229.59
2019-05-03T05:17:35.526Z,95231.19
2019-05-03T05:20:15.372Z,95238.80
2019-05-03T05:22:45.876Z,95245.37
2019-05-03T05:25:19.468Z,95235.83
2019-05-03T05:28:15.203Z,95240.03
2019-05-03T05:30:45.843Z,95245.06
2019-05-03T05:33:22.148Z,95243.75
2019-05-03T05:35:54.523Z,95242.38
2019-05-03T05:38:25.530Z,95246.39
2019-05-03T05:40:57.506Z,95249.59
2019-05-03T05:43:27.959Z,95253.09
2019-05-03T05:45:58.947Z,95253.36
2019-05-03T05:48:36.254Z,95256.00
2019-05-03T05:51:06.642Z,95260.26
2019-05-03T05:53:37.549Z,95267.98
2019-05-03T05:56:34.840Z,95255.77
2019-05-03T05:59:45.257Z,95262.43
2019-05-03T06:02:16.873Z,95264.06
2019-05-03T06:04:48.083Z,95265.69
2019-05-03T06:07:35.005Z,95274.72
2019-05-03T06:10:21.969Z,95279.84
2019-05-03T06:13:07.595Z,95289.14
2019-05-03T06:15:55.523Z,95284.62
2019-05-03T06:18:35.390Z,95288.61
2019-05-03T06:21:26.629Z,95297.73
2019-05-03T06:24:10.592Z,95294.75
2019-05-03T06:26:47.703Z,95293.70
2019-05-03T06:29:18.303Z,95290.58
2019-05-03T06:32:12.725Z,95291.93
2019-05-03T06:34:43.144Z,95296.98
2019-05-03T06:37:17.107Z,95296.45
2019-05-03T06:39:49.592Z,95290.09
2019-05-03T06:42:22.871Z,95293.89
2019-05-03T06:44:54.644Z,95305.58
2019-05-03T06:47:25.599Z,95305.84
2019-05-03T06:50:01.120Z,95296.98
2019-05-03T06:52:35.165Z,95298.34
2019-05-03T06:55:10.455Z,95297.57
2019-05-03T06:57:49.370Z,95298.45
2019-05-03T07:00:38.648Z,95291.02
2019-05-03T07:03:32.693Z,95296.63
2019-05-03T07:06:33.533Z,95294.48
2019-05-03T07:09:05.796Z,95299.25
2019-05-03T07:11:36.192Z,95302.20
2019-05-03T07:14:07.100Z,95309.94
2019-05-03T07:16:42.091Z,95309.93
2019-05-03T07:19:18.814Z,95309.12
2019-05-03T07:21:51.264Z,95318.16
2019-05-03T07:24:21.820Z,95322.13
2019-05-03T07:26:52.288Z,95318.69
2019-05-03T07:29:36.771Z,95321.34
2019-05-03T07:32:11.091Z,95323.21
2019-05-03T07:34:41.721Z,95331.95
2019-05-03T07:37:17.092Z,95337.01
2019-05-03T07:39:50.398Z,95336.97
2019-05-03T07:42:21.339Z,95339.09
2019-05-03T07:44:56.007Z,95339.61
2019-05-03T07:47:29.028Z,95334.79
2019-05-03T07:50:15.312Z,95335.86
2019-05-03T07:52:46.848Z,95328.42
2019-05-03T07:55:20.283Z,95329.79
2019-05-03T07:57:56.245Z,95337.00
2019-05-03T08:00:28.880Z,95336.46
2019-05-03T08:02:59.657Z,95328.25
2019-05-03T08:05:30.146Z,95329.37
2019-05-03T08:08:04.725Z,95334.75
2019-05-03T08:10:34.528Z,95329.96
2019-05-03T08:13:05.158Z,95331.84
2019-05-03T08:15:35.804Z,95332.12
2019-05-03T08:18:12.625Z,95332.11
2019-05-03T08:20:45.629Z,95333.45
2019-05-03T08:23:26.728Z,95345.70
2019-05-03T08:25:50.795Z,95341.41
2019-05-03T08:28:21.121Z,95349.38
2019-05-03T08:31:09.198Z,95359.69
2019-05-03T08:34:15.357Z,95362.04
2019-05-03T08:37:11.078Z,95366.77
2019-05-03T08:39:44.751Z,95372.03
2019-05-03T08:42:25.543Z,95373.61
2019-05-03T08:44:56.118Z,95378.58
2019-05-03T08:47:29.296Z,95373.75
2019-05-03T08:50:00.010Z,95377.88
2019-05-03T08:52:37.839Z,95369.72
2019-05-03T08:55:18.110Z,95373.27
2019-05-03T08:57:48.536Z,95367.25
2019-05-03T09:00:24.805Z,95365.69
2019-05-03T09:02:54.904Z,95372.89
2019-05-03T09:05:32.336Z,95371.29
2019-05-03T09:08:05.791Z,95374.20
2019-05-03T09:11:01.994Z,95375.71
2019-05-03T09:13:47.877Z,95376.22
2019-05-03T09:16:35.695Z,95368.79
2019-05-03T09:19:11.097Z,95363.49
2019-05-03T09:21:45.419Z,95372.25
2019-05-03T09:24:20.636Z,95372.81
2019-05-03T09:26:52.085Z,95378.64
2019-05-03T09:29:25.616Z,95369.33
2019-05-03T09:31:59.320Z,95374.97
2019-05-03T09:34:32.308Z,95374.70
2019-05-03T09:37:04.731Z,95378.46
2019-05-03T09:39:38.683Z,95372.54
2019-05-03T09:42:11.129Z,95376.52
2019-05-03T09:44:41.747Z,95377.59
2019-05-03T09:47:25.894Z,95374.67
2019-05-03T09:50:02.349Z,95382.67
2019-05-03T09:52:35.544Z,95380.77
2019-05-03T09:55:08.885Z,95378.13
2019-05-03T09:57:39.908Z,95383.23
2019-05-03T10:00:16.190Z,95380.89
2019-05-03T10:02:46.839Z,95381.13
2019-05-03T10:05:19.353Z,95379.02
2019-05-03T10:07:49.813Z,95380.11
2019-05-03T10:10:24.803Z,95379.02
2019-05-03T10:13:00.100Z,95378.51
2019-05-03T10:15:47.838Z,95374.78
2019-05-03T10:18:18.810Z,95374.55
2019-05-03T10:20:49.282Z,95377.72
2019-05-03T10:23:45.278Z,95378.25
2019-05-03T10:26:17.543Z,95371.88
2019-05-03T10:28:49.771Z,95377.77
2019-05-03T10:31:22.321Z,95369.61
2019-05-03T10:33:58.121Z,95369.08
2019-05-03T10:36:28.890Z,95376.27
2019-05-03T10:39:04.683Z,95372.86
2019-05-03T10:41:42.544Z,95372.59
2019-05-03T10:44:15.953Z,95364.10
2019-05-03T10:46:47.496Z,95366.52
2019-05-03T10:49:19.278Z,95361.70
2019-05-03T10:51:55.282Z,95361.16
2019-05-03T10:54:25.696Z,95360.55
2019-05-03T10:57:16.664Z,95361.11
2019-05-03T10:59:49.666Z,95352.30
2019-05-03T11:02:34.916Z,95356.81
2019-05-03T11:05:07.906Z,95353.08
2019-05-03T11:07:48.090Z,95357.91
2019-05-03T11:10:22.284Z,95348.03
2019-05-03T11:13:11.365Z,95351.26
2019-05-03T11:15:41.789Z,95355.84
2019-05-03T11:18:12.227Z,95355.33
2019-05-03T11:20:45.129Z,95343.28
2019-05-03T11:23:16.707Z,95343.23
2019-05-03T11:25:47.128Z,95344.23
2019-05-03T11:28:22.373Z,95339.58
2019-05-03T11:31:36.746Z,95344.27
2019-05-03T11:34:08.936Z,95342.29
2019-05-03T11:36:50.332Z,95335.34
2019-05-03T11:39:20.908Z,95331.81
2019-05-03T11:41:55.338Z,95324.52
2019-05-03T11:44:38.845Z,95315.96
2019-05-03T11:47:09.845Z,95323.42
2019-05-03T11:49:41.905Z,95331.91
2019-05-03T11:52:25.863Z,95316.49
2019-05-03T11:54:52.136Z,95319.38
2019-05-03T11:57:35.987Z,95318.63
2019-05-03T12:00:12.068Z,95320.87
2019-05-03T12:03:10.920Z,95310.67
2019-05-03T12:05:48.623Z,95317.91
2019-05-03T12:08:22.258Z,95324.03
2019-05-03T12:11:01.285Z,95324.96
2019-05-03T12:13:31.293Z,95333.44
2019-05-03T12:16:17.648Z,95329.50
2019-05-03T12:18:50.104Z,95329.56
2019-05-03T12:21:18.116Z,95327.20
2019-05-03T12:23:56.566Z,95326.72
2019-05-03T12:26:51.750Z,95320.03
2019-05-03T12:29:24.571Z,95321.85
2019-05-03T12:31:57.813Z,95328.59
2019-05-03T12:34:35.389Z,95324.45
2019-05-03T12:37:06.115Z,95326.00
2019-05-03T12:39:43.098Z,95324.44
2019-05-03T12:42:18.916Z,95320.16
2019-05-03T12:44:49.780Z,95317.90
2019-05-03T12:47:22.334Z,95315.70
2019-05-03T12:50:18.613Z,95308.97
2019-05-03T12:53:00.629Z,95300.05
2019-05-03T12:55:35.605Z,95303.70
2019-05-03T12:58:25.794Z,95304.78
2019-05-03T13:04:25.081Z,95304.17
2019-05-03T13:07:20.162Z,95303.44
2019-05-03T13:09:52.113Z,95303.50
2019-05-03T13:15:08.827Z,95292.70
2019-05-03T13:17:44.677Z,95293.56
2019-05-03T13:20:16.674Z,95288.56
2019-05-03T13:22:50.130Z,95288.70
2019-05-03T13:25:27.619Z,95286.67
2019-05-03T13:28:45.691Z,95284.80
2019-05-03T13:31:18.683Z,95287.66
2019-05-03T13:33:57.128Z,95290.29
2019-05-03T13:36:30.101Z,95298.27
2019-05-03T13:39:16.543Z,95300.88
2019-05-03T13:42:53.396Z,95294.73
2019-05-03T13:45:24.687Z,95298.59
2019-05-03T13:47:59.956Z,95296.77
2019-05-03T13:50:32.159Z,95294.66
2019-05-03T13:53:04.787Z,95294.47
2019-05-03T13:55:40.462Z,95296.66
2019-05-03T13:58:14.547Z,95297.73
2019-05-03T14:01:48.091Z,95289.72
2019-05-03T14:04:53.026Z,95293.46
2019-05-03T14:07:27.818Z,95293.47
2019-05-03T14:10:01.197Z,95291.64
2019-05-03T14:12:31.878Z,95294.58
2019-05-03T14:15:06.176Z,95294.84
2019-05-03T14:17:37.103Z,95298.63
2019-05-03T14:20:16.795Z,95300.80
2019-05-03T14:22:48.617Z,95295.45
2019-05-03T14:25:35.081Z,95302.70
2019-05-03T14:28:09.309Z,95298.45
2019-05-03T14:30:40.003Z,95289.63
2019-05-03T14:33:13.619Z,95295.22
2019-05-03T14:35:47.229Z,95291.22
2019-05-03T14:38:17.730Z,95287.75
2019-05-03T14:40:55.362Z,95289.89
2019-05-03T14:43:30.899Z,95289.09
2019-05-03T14:46:01.368Z,95289.35
2019-05-03T14:48:31.904Z,95281.34
2019-05-03T14:51:05.824Z,95279.21
2019-05-03T14:53:36.344Z,95282.42
2019-05-03T14:56:19.918Z,95277.34
2019-05-03T14:59:09.232Z,95286.38
2019-05-03T15:02:05.509Z,95281.31
2019-05-03T15:04:36.090Z,95271.66
2019-05-03T15:07:15.341Z,95267.62
2019-05-03T15:09:46.143Z,95267.34
2019-05-03T15:12:17.094Z,95261.24
2019-05-03T15:14:47.836Z,95260.94
2019-05-03T15:17:18.637Z,95270.81
2019-05-03T15:19:49.387Z,95267.57
2019-05-03T15:22:21.555Z,95269.97
2019-05-03T15:24:54.549Z,95266.77
2019-05-03T15:27:28.354Z,95270.02
2019-05-03T15:29:58.822Z,95271.43
2019-05-03T15:32:29.264Z,95273.61
2019-05-03T15:35:07.174Z,95266.67
2019-05-03T15:37:46.618Z,95273.88
2019-05-03T15:40:17.069Z,95268.84
2019-05-03T15:43:01.669Z,95275.78
2019-05-03T15:45:50.305Z,95274.17
2019-05-03T15:48:36.532Z,95274.17
2019-05-03T15:51:01.142Z,95272.58
2019-05-03T15:53:35.210Z,95263.50
2019-05-03T15:56:05.655Z,95264.30
2019-05-03T15:58:36.246Z,95268.54
2019-05-03T16:01:07.055Z,95269.08
2019-05-03T16:03:44.857Z,95261.87
2019-05-03T16:06:18.289Z,95266.41
2019-05-03T16:08:49.080Z,95262.67
2019-05-03T16:11:25.401Z,95264.27
2019-05-03T16:14:01.632Z,95259.20
2019-05-03T16:16:32.195Z,95257.09
2019-05-03T16:19:05.525Z,95255.77
2019-05-03T16:21:40.881Z,95267.51
2019-05-03T16:24:11.673Z,95267.51
2019-05-03T16:27:08.849Z,95265.11
2019-05-03T16:29:46.213Z,95254.17
2019-05-03T16:32:17.020Z,95262.70
2019-05-03T16:34:52.595Z,95262.17
2019-05-03T16:37:25.953Z,95263.27
2019-05-03T16:40:00.238Z,95260.34
2019-05-03T16:42:30.784Z,95259.00
2019-05-03T16:45:05.468Z,95256.87
2019-05-03T16:47:35.834Z,95256.87
2019-05-03T16:50:06.674Z,95255.80
2019-05-03T16:52:39.891Z,95257.94
2019-05-03T16:55:10.373Z,95256.60
2019-05-03T16:57:41.209Z,95255.53
2019-05-03T17:00:17.725Z,95247.80
2019-05-03T17:02:47.709Z,95248.06
2019-05-03T17:05:27.934Z,95253.94
2019-05-03T17:08:35.752Z,95254.77
2019-05-03T17:11:08.906Z,95254.27
2019-05-03T17:13:39.391Z,95253.72
2019-05-03T17:16:27.005Z,95249.72
2019-05-03T17:19:00.128Z,95247.35
2019-05-03T17:21:30.591Z,95258.02
2019-05-03T17:24:02.280Z,95254.28
2019-05-03T17:26:44.379Z,95258.81
2019-05-03T17:29:17.086Z,95254.83
2019-05-03T17:31:50.218Z,95264.16
2019-05-03T17:34:21.078Z,95259.39
2019-05-03T17:36:51.976Z,95255.63
2019-05-03T17:40:08.411Z,95262.05
2019-05-03T17:43:07.766Z,95262.84
2019-05-03T17:45:51.083Z,95265.74
2019-05-03T17:48:38.996Z,95270.83
2019-05-03T17:54:30.210Z,95264.97
2019-05-03T17:57:08.724Z,95264.97
2019-05-03T17:59:45.667Z,95264.45
2019-05-03T18:02:45.140Z,95261.23
2019-05-03T18:05:41.263Z,95248.19
2019-05-03T18:08:42.170Z,95255.38
2019-05-03T18:11:16.247Z,95255.91
2019-05-03T18:13:48.151Z,95258.02
2019-05-03T18:16:19.092Z,95261.22
2019-05-03T18:18:50.148Z,95258.28
2019-05-03T18:21:26.761Z,95256.12
2019-05-03T18:24:00.665Z,95268.09
2019-05-03T18:26:31.153Z,95271.28
2019-05-03T18:29:08.923Z,95273.38
2019-05-03T18:31:39.578Z,95270.97
2019-05-03T18:34:20.002Z,95270.69
2019-05-03T18:36:45.704Z,95276.25
2019-05-03T18:39:16.252Z,95276.24
2019-05-03T18:41:46.863Z,95285.27
2019-05-03T18:44:34.628Z,95281.27
2019-05-03T18:47:08.702Z,95283.36
2019-05-03T18:49:44.771Z,95292.39
2019-05-03T18:52:19.981Z,95290.00
2019-05-03T18:54:50.505Z,95296.66
2019-05-03T18:57:25.768Z,95299.83
2019-05-03T18:59:56.202Z,95305.95
2019-05-03T19:02:29.834Z,95300.36
2019-05-03T19:05:05.105Z,95303.76
2019-05-03T19:07:57.707Z,95309.34
2019-05-03T19:10:36.907Z,95308.52
2019-05-03T19:13:18.151Z,95302.11
2019-05-03T19:15:51.921Z,95301.80
2019-05-03T19:18:30.639Z,95302.31
2019-05-03T19:21:02.332Z,95303.84
2019-05-03T19:23:35.505Z,95304.34
2019-05-03T19:26:14.542Z,95300.78
2019-05-03T19:29:14.916Z,95304.13
2019-05-03T19:31:45.912Z,95302.44
2019-05-03T19:34:26.921Z,95299.17
2019-05-03T19:37:00.358Z,95301.52
2019-05-03T19:39:31.978Z,95298.03
2019-05-03T19:42:02.426Z,95303.31
2019-05-03T19:44:42.305Z,95298.72
2019-05-03T19:47:13.191Z,95302.08
2019-05-03T19:49:45.287Z,95294.72
2019-05-03T19:52:17.882Z,95302.04
2019-05-03T19:54:48.708Z,95308.59
2019-05-03T19:57:34.892Z,95303.17
2019-05-03T20:00:06.332Z,95304.42
2019-05-03T20:02:56.426Z,95308.27
2019-05-03T20:05:53.078Z,95301.00
2019-05-03T20:08:37.534Z,95304.04
2019-05-03T20:11:21.807Z,95304.67
2019-05-03T20:13:52.251Z,95311.70
2019-05-03T20:16:37.080Z,95310.23
2019-05-03T20:19:18.792Z,95311.19
2019-05-03T20:21:46.295Z,95312.64
2019-05-03T20:24:19.098Z,95312.30
2019-05-03T20:26:51.066Z,95311.39
2019-05-03T20:29:30.354Z,95316.34
2019-05-03T20:32:02.497Z,95307.80
2019-05-03T20:34:37.083Z,95314.34
2019-05-03T20:37:09.218Z,95312.16
2019-05-03T20:39:40.385Z,95311.87
2019-05-03T20:42:15.243Z,95309.88
2019-05-03T20:44:54.948Z,95311.25
2019-05-03T20:47:37.440Z,95309.69
2019-05-03T20:50:28.805Z,95310.31
2019-05-03T20:52:59.175Z,95307.97
2019-05-03T20:55:35.568Z,95309.29
2019-05-03T20:58:11.488Z,95308.06
2019-05-03T21:00:55.095Z,95309.92
2019-05-03T21:03:25.711Z,95313.87
2019-05-03T21:05:57.015Z,95303.48
2019-05-03T21:08:30.886Z,95299.50
2019-05-03T21:11:05.415Z,95295.25
2019-05-03T21:13:42.062Z,95298.40
2019-05-03T21:16:20.843Z,95290.08
2019-05-03T21:19:05.925Z,95287.67
2019-05-03T21:21:44.404Z,95282.87
2019-05-03T21:24:26.183Z,95282.50
2019-05-03T21:26:56.718Z,95283.47
2019-05-03T21:29:27.170Z,95279.16
2019-05-03T21:31:58.049Z,95276.97
2019-05-03T21:34:37.303Z,95278.47
2019-05-03T21:37:08.084Z,95282.32
2019-05-03T21:39:41.295Z,95280.41
2019-05-03T21:42:15.206Z,95278.98
2019-05-03T21:44:45.897Z,95272.84
2019-05-03T21:47:26.522Z,95268.98
2019-05-03T21:50:04.690Z,95277.92
2019-05-03T21:52:35.752Z,95263.04
2019-05-03T21:55:06.915Z,95262.19
2019-05-03T21:57:38.541Z,95266.88
2019-05-03T22:00:12.356Z,95266.30
2019-05-03T22:02:46.336Z,95266.48
2019-05-03T22:05:17.120Z,95265.13
2019-05-03T22:07:49.142Z,95268.98
2019-05-03T22:10:20.084Z,95259.14
2019-05-03T22:12:54.425Z,95266.95
2019-05-03T22:15:51.695Z,95257.39
2019-05-03T22:18:24.870Z,95253.89
2019-05-03T22:21:05.557Z,95249.06
2019-05-03T22:24:04.574Z,95247.66
2019-05-03T22:26:55.698Z,95241.52
2019-05-03T22:29:26.241Z,95243.70
2019-05-03T22:31:58.758Z,95240.02
2019-05-03T22:34:30.295Z,95239.45
2019-05-03T22:37:03.961Z,95236.75
2019-05-03T22:39:35.190Z,95239.97
2019-05-03T22:42:09.043Z,95237.38
2019-05-03T22:44:47.092Z,95233.19
2019-05-03T22:47:21.547Z,95235.86
2019-05-03T22:49:51.998Z,95229.83
2019-05-03T22:52:22.470Z,95231.15
2019-05-03T22:54:56.099Z,95230.00
2019-05-03T22:57:34.862Z,95230.27
2019-05-03T23:00:06.278Z,95221.82
2019-05-03T23:02:38.763Z,95226.53
2019-05-03T23:05:09.182Z,95224.35
2019-05-03T23:07:39.638Z,95215.31
2019-05-03T23:10:11.529Z,95215.25
2019-05-03T23:12:42.126Z,95212.09
2019-05-03T23:15:14.981Z,95216.06
2019-05-03T23:17:45.190Z,95208.42
2019-05-03T23:20:41.081Z,95205.78
2019-05-03T23:23:42.250Z,95200.78
2019-05-03T23:26:16.165Z,95204.25
2019-05-03T23:28:47.629Z,95195.12
2019-05-03T23:31:18.083Z,95188.03
2019-05-03T23:33:48.806Z,95181.53
2019-05-03T23:36:19.287Z,95181.59
2019-05-03T23:39:29.079Z,95175.80
2019-05-03T23:41:59.512Z,95174.59
2019-05-03T23:44:29.938Z,95169.37
2019-05-03T23:47:19.268Z,95165.47
2019-05-03T23:49:51.165Z,95161.05
2019-05-03T23:52:37.559Z,95155.06
2019-05-03T23:55:28.226Z,95156.62
2019-05-03T23:57:58.671Z,95152.47
